Time;durP1;ratioP1;P1;durP2;ratioP2;P2;SDS_P1;SDS_P2;PMS_P1;PMS_P2;Temp;Humidity;BMP_temperature;BMP_pressure;BME280_temperature;BME280_humidity;BME280_pressure;Samples;Min_cycle;Max_cycle;Signal;HPM_P1;HPM_P2
2021/01/25 00:01:43;;;;;;;65.28;27.85;;;;;;;1.42;84.40;98770.42;1623742;85;25807;-81
2021/01/25 00:04:11;;;;;;;66.17;31.87;;;;;;;1.45;84.46;98775.36;1640939;85;25863;-80
2021/01/25 00:06:38;;;;;;;56.25;27.00;;;;;;;1.45;84.48;98776.68;1657326;85;26189;-80
2021/01/25 00:09:06;;;;;;;59.93;28.92;;;;;;;1.48;84.44;98776.31;1654092;85;27522;-80
2021/01/25 00:11:33;;;;;;;57.60;28.60;;;;;;;1.47;84.42;98777.33;1613446;85;26495;-80
2021/01/25 00:14:00;;;;;;;61.98;28.50;;;;;;;1.48;84.39;98782.91;1612359;85;26022;-80
2021/01/25 00:16:28;;;;;;;61.98;31.62;;;;;;;1.46;84.35;98775.18;1655581;85;25558;-80
2021/01/25 00:18:55;;;;;;;61.53;30.85;;;;;;;1.47;84.39;98784.75;1659776;85;25989;-80
2021/01/25 00:21:23;;;;;;;64.45;29.70;;;;;;;1.49;84.46;98785.40;1592860;85;27774;-80
2021/01/25 00:23:50;;;;;;;63.33;31.33;;;;;;;1.50;84.43;98777.80;1621265;85;26132;-80
2021/01/25 00:26:18;;;;;;;55.90;27.17;;;;;;;1.51;84.39;98790.00;1642808;85;25764;-80
2021/01/25 00:28:45;;;;;;;55.48;27.25;;;;;;;1.53;84.40;98789.33;1651098;85;25972;-80
2021/01/25 00:31:12;;;;;;;55.65;29.25;;;;;;;1.52;84.38;98788.99;1619125;85;25797;-80
2021/01/25 00:33:40;;;;;;;57.65;28.42;;;;;;;1.51;84.37;98788.68;1619456;85;27547;-80
2021/01/25 00:36:07;;;;;;;54.85;28.80;;;;;;;1.53;84.33;98787.18;1655589;85;26163;-80
2021/01/25 00:38:34;;;;;;;58.85;30.10;;;;;;;1.54;84.34;98790.13;1654887;85;25773;-80
2021/01/25 00:41:02;;;;;;;64.20;29.48;;;;;;;1.53;84.32;98795.92;1605256;85;25956;-80
2021/01/25 00:43:30;;;;;;;58.80;28.98;;;;;;;1.53;84.29;98796.41;1613986;85;25861;-80
2021/01/25 00:45:57;;;;;;;57.03;28.07;;;;;;;1.55;84.37;98799.21;1611269;85;27812;-80
2021/01/25 00:48:24;;;;;;;57.90;28.90;;;;;;;1.55;84.35;98800.53;1653002;85;26007;-80
2021/01/25 00:50:52;;;;;;;60.45;29.18;;;;;;;1.56;84.35;98799.52;1609370;85;25946;-80
2021/01/25 00:53:19;;;;;;;58.68;28.80;;;;;;;1.57;84.35;98801.67;1633641;85;26135;-80
2021/01/25 00:55:46;;;;;;;52.38;28.55;;;;;;;1.58;84.38;98797.53;1621666;84;26385;-80
2021/01/25 00:58:14;;;;;;;51.83;26.95;;;;;;;1.61;84.40;98799.00;1652129;85;27608;-80
2021/01/25 01:00:41;;;;;;;54.83;27.85;;;;;;;1.63;84.40;98798.33;1588006;87;25784;-80
2021/01/25 01:03:08;;;;;;;55.83;28.12;;;;;;;1.63;84.30;98798.33;1617348;87;25882;-80
2021/01/25 01:05:36;;;;;;;53.87;26.95;;;;;;;1.64;84.36;98799.16;1631987;85;25793;-80
2021/01/25 01:08:03;;;;;;;49.08;25.70;;;;;;;1.63;84.29;98803.61;1634273;85;26110;-80
2021/01/25 01:10:31;;;;;;;61.58;28.32;;;;;;;1.65;84.39;98804.77;1590754;85;27741;-80
2021/01/25 01:12:58;;;;;;;55.90;26.60;;;;;;;1.65;84.33;98804.77;1624948;85;26434;-80
2021/01/25 01:15:25;;;;;;;47.38;24.87;;;;;;;1.66;84.30;98805.08;1656100;85;25964;-80
2021/01/25 01:17:53;;;;;;;48.60;24.60;;;;;;;1.65;84.24;98808.21;1655203;85;26291;-81
2021/01/25 01:20:20;;;;;;;45.33;23.77;;;;;;;1.63;84.23;98813.33;1591736;87;25844;-81
2021/01/25 01:22:47;;;;;;;51.02;24.95;;;;;;;1.61;84.24;98811.37;1619426;85;28541;-80
2021/01/25 01:25:15;;;;;;;47.08;24.00;;;;;;;1.59;84.29;98812.87;1654049;85;25936;-80
2021/01/25 01:27:43;;;;;;;50.80;25.20;;;;;;;1.58;84.30;98820.48;1635700;85;25936;-80
2021/01/25 01:30:12;;;;;;;48.83;24.07;;;;;;;1.58;84.33;98830.20;1609281;87;25891;-80
2021/01/25 01:32:40;;;;;;;46.98;23.87;;;;;;;1.58;84.39;98835.48;1632157;87;25929;-79
2021/01/25 01:35:08;;;;;;;43.30;22.05;;;;;;;1.57;84.41;98833.33;1634894;85;28323;-81
2021/01/25 01:37:36;;;;;;;44.77;22.02;;;;;;;1.56;84.34;98827.22;1658215;85;25949;-80
2021/01/25 01:40:07;;;;;;;48.98;24.47;;;;;;;1.54;84.37;98834.49;1611240;85;26474;-80
2021/01/25 01:42:35;;;;;;;40.67;23.35;;;;;;;1.55;84.47;98832.69;1610017;87;25946;-80
2021/01/25 01:45:04;;;;;;;42.05;22.98;;;;;;;1.57;84.45;98833.33;1633626;85;25961;-80
2021/01/25 01:47:33;;;;;;;46.23;21.50;;;;;;;1.59;84.51;98836.62;1652409;85;27535;-80
2021/01/25 01:50:02;;;;;;;39.33;20.32;;;;;;;1.62;84.46;98836.77;1634323;85;26131;-80
2021/01/25 01:52:29;;;;;;;42.98;22.62;;;;;;;1.60;84.39;98832.17;1622760;85;25936;-81
2021/01/25 01:55:00;;;;;;;43.10;22.07;;;;;;;1.60;84.43;98833.48;1654205;85;25931;-79
2021/01/25 01:57:34;;;;;;;45.52;21.15;;;;;;;1.62;84.47;98833.64;1657850;85;26099;-80
2021/01/25 02:00:07;;;;;;;39.15;21.50;;;;;;;1.60;84.42;98836.95;1608056;85;27566;-80
2021/01/25 02:02:36;;;;;;;47.67;22.65;;;;;;;1.62;84.53;98838.92;1613730;85;25924;-80
2021/01/25 02:05:04;;;;;;;44.90;22.30;;;;;;;1.65;84.53;98843.84;1656411;85;25834;-81
2021/01/25 02:07:33;;;;;;;42.38;21.00;;;;;;;1.68;84.46;98841.36;1632807;85;26238;-80
2021/01/25 02:10:04;;;;;;;38.17;21.65;;;;;;;1.67;84.34;98841.05;1593363;85;25947;-80
2021/01/25 02:12:32;;;;;;;;;;;;;;;1.68;84.41;98841.36;1644117;85;27554;-80
2021/01/25 02:15:02;;;;;;;40.90;20.05;;;;;;;1.69;84.43;98837.22;1651737;85;26171;-80
2021/01/25 02:17:30;;;;;;;39.48;20.72;;;;;;;1.69;84.43;98833.78;1643164;85;25907;-80
2021/01/25 02:20:05;;;;;;;38.85;21.77;;;;;;;1.71;84.46;98831.78;1635341;85;25489;-80
2021/01/25 02:23:00;;;;;;;41.65;20.32;;;;;;;1.72;84.41;98840.84;1635509;85;26150;-80
2021/01/25 02:26:04;;;;;;;42.33;21.15;;;;;;;1.74;84.43;98838.84;1633626;86;28523;-80
2021/01/25 02:28:32;;;;;;;36.53;18.98;;;;;;;1.74;84.30;98838.84;1627725;86;25439;-81
2021/01/25 02:31:06;;;;;;;40.15;19.52;;;;;;;1.73;84.30;98835.90;1629449;85;25903;-80
2021/01/25 02:33:38;;;;;;;39.15;20.57;;;;;;;1.71;84.29;98839.18;1584420;88;26484;-80
2021/01/25 02:36:07;;;;;;;37.00;20.57;;;;;;;1.70;84.32;98847.28;1648613;85;25803;-80
2021/01/25 02:38:37;;;;;;;40.23;21.17;;;;;;;1.71;84.42;98849.73;1654747;84;27605;-80
2021/01/25 02:41:05;;;;;;;41.20;21.62;;;;;;;1.69;84.37;98850.41;1638261;85;26159;-80
2021/01/25 02:43:32;;;;;;;38.00;20.20;;;;;;;1.74;84.55;98849.41;1634219;85;25906;-80
2021/01/25 02:46:01;;;;;;;41.05;21.45;;;;;;;1.75;84.46;98854.20;1635542;85;25743;-81
2021/01/25 02:48:29;;;;;;;34.53;19.77;;;;;;;1.79;84.56;98849.72;1636478;85;25917;-80
2021/01/25 02:50:56;;;;;;;36.20;19.35;;;;;;;1.82;84.50;98853.83;1651038;85;28494;-80
2021/01/25 02:53:24;;;;;;;37.63;20.40;;;;;;;1.82;84.39;98848.55;1653958;85;25404;-79
2021/01/25 02:55:51;;;;;;;40.10;19.00;;;;;;;1.82;84.38;98852.52;1605675;87;26158;-80
2021/01/25 02:58:20;;;;;;;34.53;18.42;;;;;;;1.78;84.34;98855.98;1635146;86;25822;-80
2021/01/25 03:00:52;;;;;;;38.67;19.67;;;;;;;1.79;84.44;98858.95;1642854;85;26412;-80
2021/01/25 03:03:24;;;;;;;34.50;19.27;;;;;;;1.81;84.49;98856.13;1631012;85;27197;-80
2021/01/25 03:05:51;;;;;;;37.80;21.62;;;;;;;1.81;84.42;98857.45;1607583;87;25702;-80
2021/01/25 03:08:19;;;;;;;38.30;19.80;;;;;;;1.81;84.49;98855.64;1631775;85;26237;-80
2021/01/25 03:10:47;;;;;;;34.90;17.87;;;;;;;1.86;84.55;98853.28;1641958;85;25562;-80
2021/01/25 03:13:15;;;;;;;38.45;20.30;;;;;;;1.87;84.41;98849.66;1654601;85;25814;-80
2021/01/25 03:15:45;;;;;;;37.88;19.32;;;;;;;1.85;84.33;98850.34;1610844;85;27829;-80
2021/01/25 03:18:12;;;;;;;38.98;20.72;;;;;;;1.84;84.37;98855.80;1632951;85;26190;-80
2021/01/25 03:20:40;;;;;;;31.23;18.20;;;;;;;1.86;84.43;98856.45;1640002;85;26382;-80
2021/01/25 03:23:07;;;;;;;36.08;20.15;;;;;;;1.89;84.49;98861.36;1636156;85;25881;-80
2021/01/25 03:25:34;;;;;;;34.80;19.20;;;;;;;1.89;84.42;98853.44;1613485;85;25851;-81
2021/01/25 03:28:02;;;;;;;38.15;21.30;;;;;;;1.91;84.52;98857.55;1621025;85;27630;-80
2021/01/25 03:30:29;;;;;;;33.35;19.42;;;;;;;1.96;84.55;98854.39;1641990;85;25431;-80
2021/01/25 03:32:57;;;;;;;39.65;20.30;;;;;;;2.00;84.53;98860.48;1567441;88;25781;-80
2021/01/25 03:35:24;;;;;;;37.48;20.43;;;;;;;2.03;84.41;98856.15;1632611;85;25813;-80
2021/01/25 03:37:52;;;;;;;32.60;18.30;;;;;;;2.05;84.41;98866.03;1610756;85;25806;-80
2021/01/25 03:40:19;;;;;;;34.70;19.67;;;;;;;2.06;84.19;98860.27;1640750;85;28584;-80
2021/01/25 03:42:47;;;;;;;34.78;19.17;;;;;;;2.04;84.26;98864.91;1656358;85;25812;-80
2021/01/25 03:45:14;;;;;;;33.67;19.15;;;;;;;2.06;84.31;98858.45;1609859;85;26591;-80
2021/01/25 03:47:42;;;;;;;35.10;18.02;;;;;;;2.08;84.26;98865.70;1635519;85;25898;-80
2021/01/25 03:50:10;;;;;;;40.15;20.48;;;;;;;2.08;84.27;98865.70;1639766;85;25423;-80
2021/01/25 03:52:37;;;;;;;36.65;19.55;;;;;;;2.10;84.21;98865.52;1633178;85;28322;-80
2021/01/25 03:55:07;;;;;;;36.58;20.02;;;;;;;2.11;84.19;98865.86;1641078;85;25805;-80
2021/01/25 03:57:35;;;;;;;35.92;19.67;;;;;;;2.14;84.18;98876.88;1622410;85;26354;-81
2021/01/25 04:00:08;;;;;;;35.55;19.40;;;;;;;2.13;83.95;98876.58;1643955;85;25809;-80
2021/01/25 04:02:35;;;;;;;31.87;18.17;;;;;;;2.10;83.94;98881.36;1658739;85;25904;-81
2021/01/25 04:05:03;;;;;;;41.45;21.77;;;;;;;2.10;83.91;98880.87;1614669;85;27569;-80
2021/01/25 04:07:30;;;;;;;43.35;24.77;;;;;;;2.12;83.93;98884.16;1632852;85;26163;-80
2021/01/25 04:09:58;;;;;;;44.88;24.45;;;;;;;2.13;83.88;98887.63;1646590;85;26091;-80
2021/01/25 04:12:25;;;;;;;39.83;23.05;;;;;;;2.12;83.80;98888.13;1655704;84;25850;-80
2021/01/25 04:14:53;;;;;;;39.70;20.10;;;;;;;2.11;83.72;98891.77;1608212;87;25931;-80
2021/01/25 04:17:22;;;;;;;37.25;22.10;;;;;;;2.09;83.69;98896.41;1626747;85;27625;-81
2021/01/25 04:19:49;;;;;;;38.05;20.20;;;;;;;2.10;83.69;98905.96;1651739;85;25802;-81
2021/01/25 04:22:18;;;;;;;39.75;20.12;;;;;;;2.10;83.67;98900.68;1664455;85;25816;-80
2021/01/25 04:24:45;;;;;;;41.23;20.85;;;;;;;2.11;83.59;98902.34;1644352;85;26498;-80
2021/01/25 04:27:13;;;;;;;34.05;19.25;;;;;;;2.10;83.50;98905.96;1613936;85;26450;-80
2021/01/25 04:29:41;;;;;;;37.00;19.85;;;;;;;2.08;83.42;98910.59;1635571;85;27687;-80
2021/01/25 04:32:11;;;;;;;35.90;20.00;;;;;;;2.05;83.34;98910.93;1658690;85;25887;-79
2021/01/25 04:34:38;;;;;;;35.95;19.87;;;;;;;2.02;83.31;98903.37;1635253;85;25852;-81
2021/01/25 04:37:06;;;;;;;34.88;21.02;;;;;;;2.00;83.38;98909.81;1636990;85;25746;-80
2021/01/25 04:39:33;;;;;;;37.95;20.05;;;;;;;1.98;83.32;98910.00;1641596;86;25833;-80
2021/01/25 04:42:00;;;;;;;37.25;20.92;;;;;;;1.97;83.32;98910.16;1609303;85;27368;-80
2021/01/25 04:44:28;;;;;;;35.65;19.65;;;;;;;1.95;83.24;98905.55;1612788;85;26303;-80
2021/01/25 04:46:56;;;;;;;35.68;20.52;;;;;;;1.95;83.27;98909.50;1652990;85;26371;-80
2021/01/25 04:49:25;;;;;;;35.17;19.70;;;;;;;1.93;83.29;98907.53;1646369;85;25807;-80
2021/01/25 04:51:54;;;;;;;36.50;19.62;;;;;;;1.93;83.32;98903.58;1658019;85;26386;-80
2021/01/25 04:54:22;;;;;;;34.30;19.35;;;;;;;1.92;83.36;98911.19;1602083;85;27562;-81
2021/01/25 04:56:51;;;;;;;36.45;19.30;;;;;;;1.94;83.45;98910.52;1636077;87;26584;-80
2021/01/25 04:59:20;;;;;;;35.52;19.95;;;;;;;1.93;83.40;98912.33;1633255;85;26679;-80
2021/01/25 05:01:47;;;;;;;36.20;20.37;;;;;;;1.94;83.47;98913.98;1657641;85;25936;-80
2021/01/25 05:04:15;;;;;;;38.55;21.68;;;;;;;1.95;83.48;98916.10;1616106;85;25858;-80
2021/01/25 05:06:42;;;;;;;38.78;20.90;;;;;;;1.97;83.50;98909.66;1622185;85;27578;-80
2021/01/25 05:09:09;;;;;;;36.80;20.43;;;;;;;1.98;83.43;98918.41;1620211;85;26153;-80
2021/01/25 05:11:37;;;;;;;36.35;19.00;;;;;;;1.97;83.46;98914.11;1636003;85;25917;-80
2021/01/25 05:14:06;;;;;;;38.42;20.52;;;;;;;1.97;83.49;98912.30;1611684;85;25793;-80
2021/01/25 05:16:34;;;;;;;37.50;20.88;;;;;;;1.97;83.47;98914.11;1636762;85;25503;-80
2021/01/25 05:19:05;;;;;;;40.25;20.97;;;;;;;1.96;83.48;98915.95;1642349;85;29015;-80
2021/01/25 05:21:42;;;;;;;39.03;21.93;;;;;;;1.96;83.47;98917.77;1636843;85;25480;-80
2021/01/25 05:24:12;;;;;;;38.90;20.50;;;;;;;1.97;83.57;98918.07;1615411;85;25917;-80
2021/01/25 05:29:33;;;;;;;53.05;24.98;;;;;;;2.04;83.57;98913.75;1860641;76;26174;-80
2021/01/25 05:32:01;;;;;;;49.90;24.43;;;;;;;1.96;83.58;98919.91;1823141;77;26381;-80
2021/01/25 05:34:29;;;;;;;45.70;25.02;;;;;;;1.96;83.70;98923.05;1804484;77;28401;-81
2021/01/25 05:36:56;;;;;;;59.55;29.92;;;;;;;1.97;83.75;98922.03;1833875;77;26065;-80
2021/01/25 05:39:29;;;;;;;65.32;31.02;;;;;;;1.97;83.71;98923.35;1794976;78;25382;-80
2021/01/25 05:41:58;;;;;;;75.22;35.00;;;;;;;1.97;83.62;98923.35;1821859;77;25877;-80
2021/01/25 05:44:26;;;;;;;74.77;33.15;;;;;;;1.97;83.78;98924.19;1803242;77;25770;-81
2021/01/25 05:47:10;;;;;;;69.25;31.70;;;;;;;1.96;83.68;98929.64;1836964;77;26835;-80
2021/01/25 05:49:37;;;;;;;57.40;29.82;;;;;;;1.94;83.74;98935.11;1793376;77;25876;-80
2021/01/25 05:52:06;;;;;;;57.48;28.55;;;;;;;1.95;83.83;98930.62;1798804;77;26121;-81
2021/01/25 05:54:33;;;;;;;60.05;30.02;;;;;;;1.96;83.81;98937.56;1801664;77;26437;-80
2021/01/25 05:57:00;;;;;;;55.65;28.57;;;;;;;1.98;83.83;98936.89;1777773;78;26099;-80
2021/01/25 05:59:28;;;;;;;57.35;29.23;;;;;;;2.00;83.82;98938.38;1728048;80;27494;-81
2021/01/25 06:02:01;;;;;;;65.75;33.50;;;;;;;2.01;83.83;98941.32;1762794;78;25942;-80
2021/01/25 06:04:29;;;;;;;58.23;29.45;;;;;;;2.02;83.75;98930.27;1735122;80;25820;-80
2021/01/25 06:07:11;;;;;;;57.20;30.17;;;;;;;2.02;83.64;98932.91;1777405;79;25858;-80
2021/01/25 06:09:56;;;;;;;53.63;28.25;;;;;;;2.00;83.61;98927.81;1715797;80;25971;-83
2021/01/25 06:12:35;;;;;;;63.05;33.75;;;;;;;2.02;83.67;98931.59;1760264;79;27548;-82
2021/01/25 06:15:06;;;;;;;61.85;29.92;;;;;;;2.05;83.75;98934.70;1739246;80;25925;-81
2021/01/25 06:17:35;;;;;;;59.40;31.23;;;;;;;2.07;83.66;98930.09;1757681;78;25807;-80
2021/01/25 06:20:09;;;;;;;53.42;29.55;;;;;;;2.04;83.58;98935.70;1748090;78;25899;-82
2021/01/25 06:22:38;;;;;;;60.25;30.15;;;;;;;2.03;83.52;98935.38;1758511;78;25856;-81
2021/01/25 06:25:07;;;;;;;64.82;34.23;;;;;;;2.02;83.56;98941.66;1771905;78;27445;-83
2021/01/25 06:27:38;;;;;;;62.20;32.53;;;;;;;2.03;83.55;98934.57;1743934;80;26473;-80
2021/01/25 06:30:06;;;;;;;;;;;;;;;2.04;83.64;98938.35;1747334;80;25853;-79
2021/01/25 06:32:42;;;;;;;58.92;29.00;;;;;;;2.02;83.43;98935.06;1740087;80;25650;-77
2021/01/25 06:35:13;;;;;;;52.25;26.80;;;;;;;1.97;83.53;98943.98;1718302;81;26182;-79
2021/01/25 06:37:40;;;;;;;56.60;29.67;;;;;;;1.97;83.56;98942.67;1719560;82;28573;-77
2021/01/25 06:40:11;;;;;;;54.18;29.52;;;;;;;1.96;83.56;98946.32;1721528;81;25770;-76
2021/01/25 06:42:40;;;;;;;62.53;32.05;;;;;;;1.97;83.54;98941.34;1726377;81;25810;-76
2021/01/25 06:45:10;;;;;;;53.85;29.52;;;;;;;1.96;83.55;98946.32;1719084;81;25888;-78
2021/01/25 06:47:39;;;;;;;54.55;27.80;;;;;;;1.98;83.56;98947.45;1722496;81;26145;-77
2021/01/25 06:50:08;;;;;;;54.83;28.62;;;;;;;1.99;83.55;98953.08;1716097;81;27539;-76
2021/01/25 06:52:38;;;;;;;55.45;27.52;;;;;;;2.02;83.51;98958.83;1729617;81;25901;-75
2021/01/25 06:55:09;;;;;;;55.95;27.77;;;;;;;2.00;83.47;98961.31;1727217;80;25898;-79
2021/01/25 06:57:37;;;;;;;55.05;27.22;;;;;;;2.01;83.46;98961.65;1725744;81;25797;-77
2021/01/25 07:00:11;;;;;;;56.18;27.67;;;;;;;1.98;83.34;98961.49;1768260;78;26220;-78
2021/01/25 07:02:59;;;;;;;49.55;25.82;;;;;;;2.05;83.45;98965.06;1831274;77;25939;-76
2021/01/25 07:05:36;;;;;;;50.25;24.37;;;;;;;2.00;83.48;98963.45;1781673;78;26196;-81
2021/01/25 07:08:25;;;;;;;43.33;23.95;;;;;;;2.02;83.43;98962.79;1809618;78;29025;-77
2021/01/25 07:11:06;;;;;;;46.85;23.07;;;;;;;2.04;83.49;98969.20;1798200;78;26400;-79
2021/01/25 07:13:36;;;;;;;42.83;21.80;;;;;;;2.07;83.47;98971.52;1735168;80;25463;-80
2021/01/25 07:16:04;;;;;;;38.50;20.32;;;;;;;2.08;83.43;98977.94;1749740;78;25456;-80
2021/01/25 07:18:32;;;;;;;42.38;21.93;;;;;;;2.09;83.39;98979.60;1738749;79;25996;-78
2021/01/25 07:21:01;;;;;;;42.80;22.67;;;;;;;2.13;83.32;98986.18;1783164;78;27990;-78
2021/01/25 07:23:31;;;;;;;40.80;22.25;;;;;;;2.13;83.29;98984.86;1740431;79;26517;-79
2021/01/25 07:26:01;;;;;;;41.63;22.17;;;;;;;2.14;83.21;98989.13;1765180;78;25784;-77
2021/01/25 07:28:31;;;;;;;42.50;22.10;;;;;;;2.15;83.25;98988.64;1784014;78;26478;-77
2021/01/25 07:31:00;;;;;;;38.37;22.03;;;;;;;2.17;83.26;98984.83;1800917;78;25837;-78
2021/01/25 07:33:28;;;;;;;49.65;23.00;;;;;;;2.19;83.15;98987.30;1755903;78;27578;-78
2021/01/25 07:35:58;;;;;;;43.08;22.45;;;;;;;2.18;83.13;98982.50;1755978;77;26467;-78
2021/01/25 07:38:28;;;;;;;40.15;22.37;;;;;;;2.21;83.08;98981.34;1739405;81;25915;-78
2021/01/25 07:41:00;;;;;;;42.30;21.35;;;;;;;2.20;83.06;98981.03;1751363;81;26496;-78
2021/01/25 07:43:32;;;;;;;39.83;22.60;;;;;;;2.21;83.15;98980.84;1721145;81;25381;-78
2021/01/25 07:46:08;;;;;;;45.75;21.23;;;;;;;2.23;83.09;98981.98;1734801;81;27528;-78
2021/01/25 07:48:49;;;;;;;39.63;20.88;;;;;;;2.24;82.96;98983.16;1750280;81;25930;-78
2021/01/25 07:51:19;;;;;;;40.92;21.10;;;;;;;2.23;82.89;98984.14;1751265;81;25995;-78
2021/01/25 07:53:47;;;;;;;48.65;25.23;;;;;;;2.20;82.83;98982.35;1748743;81;25763;-78
2021/01/25 07:56:17;;;;;;;42.58;22.50;;;;;;;2.18;82.76;98986.98;1738319;81;25850;-78
2021/01/25 07:58:47;;;;;;;38.60;20.85;;;;;;;2.17;82.91;98980.88;1724046;81;28086;-78
2021/01/25 08:01:24;;;;;;;42.48;21.73;;;;;;;2.20;83.08;98981.03;1722316;82;26159;-78
2021/01/25 08:04:01;;;;;;;38.78;19.67;;;;;;;2.25;83.17;98983.95;1727787;82;25797;-78
2021/01/25 08:06:34;;;;;;;41.65;21.75;;;;;;;2.27;83.10;98988.56;1732892;81;25803;-78
2021/01/25 08:09:11;;;;;;;43.10;22.32;;;;;;;2.26;82.94;98990.41;1729823;81;25947;-78
2021/01/25 08:11:42;;;;;;;48.02;24.37;;;;;;;2.26;82.92;98989.09;1744360;80;28565;-78
2021/01/25 08:14:35;;;;;;;50.80;23.92;;;;;;;2.26;82.94;98991.73;1714464;81;25769;-78
2021/01/25 08:17:29;;;;;;;46.92;23.32;;;;;;;2.30;82.93;98993.52;1735894;81;25697;-80
2021/01/25 08:20:04;;;;;;;51.40;23.62;;;;;;;2.31;82.88;98994.66;1738609;81;25910;-78
2021/01/25 08:22:48;;;;;;;45.75;24.55;;;;;;;2.32;82.78;98989.71;1746633;81;26115;-79
2021/01/25 08:25:24;;;;;;;51.65;25.05;;;;;;;2.33;82.72;98997.14;1708038;82;27652;-78
2021/01/25 08:28:18;;;;;;;52.95;26.73;;;;;;;2.32;82.74;98996.81;1715699;81;26129;-78
2021/01/25 08:30:48;;;;;;;54.18;28.00;;;;;;;2.30;82.66;98994.34;1759841;80;26278;-78
2021/01/25 08:33:30;;;;;;;53.40;27.87;;;;;;;2.33;82.67;98999.27;1740797;81;26377;-78
2021/01/25 08:36:02;;;;;;;55.75;34.00;;;;;;;2.34;82.66;98996.13;1710558;80;25856;-78
2021/01/25 08:38:37;;;;;;;43.45;25.05;;;;;;;2.30;82.40;99003.59;1686004;81;27567;-78
2021/01/25 08:41:23;;;;;;;40.08;21.87;;;;;;;2.28;82.40;98996.34;1700520;82;25753;-78
2021/01/25 08:43:59;;;;;;;35.70;20.10;;;;;;;2.25;82.45;98992.71;1720378;82;25826;-79
2021/01/25 08:46:31;;;;;;;36.15;19.20;;;;;;;2.26;82.53;98998.34;1687553;82;25971;-76
2021/01/25 08:49:19;;;;;;;34.70;18.10;;;;;;;2.30;82.58;98998.31;1662177;83;26159;-78
2021/01/25 08:52:07;;;;;;;33.45;18.67;;;;;;;2.30;82.30;98999.62;1743692;80;27342;-77
2021/01/25 08:54:40;;;;;;;32.60;18.52;;;;;;;2.31;82.51;98997.79;1753702;79;26715;-78
2021/01/25 08:57:24;;;;;;;28.75;17.17;;;;;;;2.34;82.63;99003.57;1730599;80;26028;-78
2021/01/25 08:59:51;;;;;;;35.25;18.00;;;;;;;2.36;82.28;98994.14;1740972;81;26210;-77
2021/01/25 09:02:22;;;;;;;32.98;17.85;;;;;;;2.33;82.18;98993.19;1742861;80;25839;-79
2021/01/25 09:04:52;;;;;;;29.50;15.83;;;;;;;2.28;82.04;98991.06;1761289;80;27544;-79
2021/01/25 09:07:23;;;;;;;33.63;17.20;;;;;;;2.24;82.04;98995.53;1719444;80;25836;-81
2021/01/25 09:09:50;;;;;;;29.23;15.78;;;;;;;2.16;82.04;98996.38;1747543;80;25882;-80
2021/01/25 09:12:19;;;;;;;31.05;16.82;;;;;;;2.13;82.16;98994.59;1744445;80;25674;-80
2021/01/25 09:14:47;;;;;;;29.10;16.17;;;;;;;2.12;82.25;98987.65;1765544;80;25853;-80
2021/01/25 09:17:15;;;;;;;36.03;17.95;;;;;;;2.07;82.21;98990.83;1711273;81;27548;-79
2021/01/25 09:19:42;;;;;;;32.95;18.30;;;;;;;2.04;82.27;99003.05;1743990;80;26119;-79
2021/01/25 09:22:12;;;;;;;33.48;17.70;;;;;;;2.03;82.45;98998.75;1741971;80;25818;-80
2021/01/25 09:24:40;;;;;;;28.55;15.93;;;;;;;2.06;82.58;98998.91;1764186;80;25727;-78
2021/01/25 09:27:09;;;;;;;31.65;17.75;;;;;;;2.09;82.47;99001.22;1694242;81;26689;-78
2021/01/25 09:29:37;;;;;;;32.70;17.50;;;;;;;2.12;82.55;99006.14;1747412;80;27540;-79
2021/01/25 09:32:06;;;;;;;33.30;16.70;;;;;;;2.10;82.59;99007.64;1743735;81;25968;-79
2021/01/25 09:34:34;;;;;;;32.63;18.07;;;;;;;2.13;82.48;99011.77;1758242;80;25876;-76
2021/01/25 09:37:03;;;;;;;31.95;17.15;;;;;;;2.14;82.51;99018.19;1727596;80;26402;-77
2021/01/25 09:39:30;;;;;;;33.48;17.10;;;;;;;2.16;82.58;99028.08;1691618;82;25858;-77
2021/01/25 09:41:57;;;;;;;33.70;17.40;;;;;;;2.19;82.52;99027.75;1697526;82;27134;-76
2021/01/25 09:44:25;;;;;;;30.23;16.45;;;;;;;2.19;82.48;99027.75;1708190;83;25451;-78
2021/01/25 09:46:52;;;;;;;34.50;17.23;;;;;;;2.20;82.48;99032.54;1675491;81;26427;-76
2021/01/25 09:49:20;;;;;;;33.50;17.95;;;;;;;2.23;82.47;99029.53;1701878;82;26124;-78
2021/01/25 09:51:47;;;;;;;31.55;16.85;;;;;;;2.24;82.62;99028.55;1716210;80;25799;-80
2021/01/25 09:54:15;;;;;;;28.40;16.02;;;;;;;2.28;82.63;99023.25;1742280;78;29125;-77
2021/01/25 09:56:42;;;;;;;30.57;16.17;;;;;;;2.27;82.39;99029.52;1715227;80;26291;-77
2021/01/25 09:59:12;;;;;;;32.48;17.48;;;;;;;2.24;82.53;99030.70;1738038;80;25869;-76
2021/01/25 10:01:39;;;;;;;29.37;15.58;;;;;;;2.28;82.58;99032.50;1755144;80;25833;-76
2021/01/25 10:04:06;;;;;;;27.90;15.98;;;;;;;2.28;82.40;99029.36;1772521;80;26125;-78
2021/01/25 10:06:34;;;;;;;29.00;16.52;;;;;;;2.24;82.36;99024.59;1700030;83;28514;-75
2021/01/25 10:09:03;;;;;;;24.70;14.20;;;;;;;2.22;82.33;99030.02;1680365;83;25837;-77
2021/01/25 10:11:31;;;;;;;27.25;15.93;;;;;;;2.22;82.36;99031.87;1744567;80;26584;-79
2021/01/25 10:13:58;;;;;;;30.90;15.40;;;;;;;2.18;82.37;99028.73;1771053;80;26254;-78
2021/01/25 10:16:26;;;;;;;26.30;14.65;;;;;;;2.20;82.50;99027.26;1687991;80;26218;-77
2021/01/25 10:18:54;;;;;;;28.70;15.13;;;;;;;2.20;82.41;99025.94;1746188;80;27647;-79
2021/01/25 10:21:22;;;;;;;24.87;14.07;;;;;;;2.19;82.54;99022.47;1739915;80;25803;-79
2021/01/25 10:23:49;;;;;;;26.80;13.50;;;;;;;2.15;82.44;99022.97;1772960;80;25804;-81
2021/01/25 10:26:20;;;;;;;28.25;16.48;;;;;;;2.09;82.45;99017.89;1724381;80;26039;-77
2021/01/25 10:28:49;;;;;;;23.52;13.18;;;;;;;2.09;82.74;99020.53;1755970;80;26082;-78
2021/01/25 10:31:17;;;;;;;28.02;15.48;;;;;;;2.08;82.59;99016.72;1732206;80;27972;-77
2021/01/25 10:33:44;;;;;;;26.77;14.53;;;;;;;2.07;82.78;99021.20;1713645;80;25787;-80
2021/01/25 10:36:12;;;;;;;30.97;14.90;;;;;;;2.09;82.93;99021.86;1704957;80;25877;-80
2021/01/25 10:38:40;;;;;;;26.85;14.53;;;;;;;2.04;82.82;99019.38;1774071;80;25398;-80
2021/01/25 10:41:07;;;;;;;29.35;15.70;;;;;;;1.98;82.87;99021.39;1770884;80;26652;-80
2021/01/25 10:43:35;;;;;;;29.42;16.87;;;;;;;1.95;83.01;99018.59;1742665;80;28555;-79
2021/01/25 10:46:03;;;;;;;28.00;16.45;;;;;;;1.95;83.17;99019.08;1692886;81;26679;-81
2021/01/25 10:48:31;;;;;;;25.88;14.58;;;;;;;1.96;83.33;99024.21;1698682;81;26562;-78
2021/01/25 10:51:00;;;;;;;31.87;16.05;;;;;;;1.94;83.25;99022.73;1717694;82;25816;-81
2021/01/25 10:53:27;;;;;;;28.67;14.83;;;;;;;1.94;83.36;99020.92;1708421;80;25821;-81
2021/01/25 10:55:55;;;;;;;28.17;13.65;;;;;;;1.89;83.32;99023.72;1756782;80;27763;-81
2021/01/25 10:58:22;;;;;;;30.10;16.20;;;;;;;1.87;83.40;99030.50;1692911;82;25877;-81
2021/01/25 11:00:51;;;;;;;31.05;18.15;;;;;;;1.89;83.54;99023.23;1715120;82;25740;-81
2021/01/25 11:03:19;;;;;;;35.08;16.75;;;;;;;1.90;83.47;99026.70;1652274;82;25804;-81
2021/01/25 11:05:46;;;;;;;29.12;15.85;;;;;;;1.89;83.53;99016.64;1710233;82;26919;-81
2021/01/25 11:08:13;;;;;;;30.92;17.12;;;;;;;1.91;83.57;99014.65;1730115;82;27356;-80
2021/01/25 11:10:41;;;;;;;30.30;17.00;;;;;;;1.86;83.52;99011.68;1726700;82;25941;-81
2021/01/25 11:13:08;;;;;;;28.57;14.70;;;;;;;1.85;83.60;99018.46;1697381;82;25830;-80
2021/01/25 11:15:36;;;;;;;32.90;16.67;;;;;;;1.82;83.62;99021.45;1702206;82;25833;-80
2021/01/25 11:18:04;;;;;;;33.05;17.48;;;;;;;1.82;83.84;99017.50;1687450;82;26430;-77
2021/01/25 11:20:32;;;;;;;32.42;17.70;;;;;;;1.81;83.89;99015.84;1706601;82;27638;-80
2021/01/25 11:22:59;;;;;;;31.25;16.25;;;;;;;1.81;83.92;99008.75;1707275;80;26361;-80
2021/01/25 11:25:26;;;;;;;31.45;17.02;;;;;;;1.82;83.95;99021.45;1744648;80;25941;-80
2021/01/25 11:27:54;;;;;;;33.20;17.12;;;;;;;1.83;83.93;99012.53;1759164;80;25830;-79
2021/01/25 11:30:24;;;;;;;34.00;18.25;;;;;;;1.83;83.99;99011.20;1770260;79;25710;-81
2021/01/25 11:32:52;;;;;;;35.00;17.07;;;;;;;1.83;84.03;99014.68;1670831;81;28425;-78
2021/01/25 11:35:20;;;;;;;31.65;17.17;;;;;;;1.82;84.09;99014.34;1720142;80;25732;-79
2021/01/25 11:37:47;;;;;;;32.65;17.37;;;;;;;1.79;84.08;99001.50;1744220;80;25948;-78
2021/01/25 11:40:15;;;;;;;28.00;15.70;;;;;;;1.80;84.16;99005.77;1749790;80;25702;-76
2021/01/25 11:42:43;;;;;;;28.23;15.78;;;;;;;1.80;84.13;99000.98;1677619;82;25849;-78